Camden Wyoming, Delaware
Current Conditions -  °F | °C
As of 2:58 AM on Sunday 23 Nov 2014 (Local Time) from KDOV Reporting Station
Clear Clear  
Wind Chill: 33°   Ceiling: Unl
Heat Index: 40°   Visibility: 10mi
Dew Point: 24°   Wind: 12mph
Humidity: 53%   Direction: 190°S
Pressure: 30.21"   Gusts: NA
Location:  39.1°N, 75.58°W
Report Text: KDOV 230758Z AUTO 19010KT 10SM CLR 04/M04 A3021 RMK AO2 SLP234 T00431045
Loading
Personal Weather Stations






























Interactive Weather Map New forecast layout! Learn more

10-Day Weather Forecast

Advertisements
Track Severe Weather on mobile